createdAt,value
2018-12-10T00:00:14.663Z,8.90
2018-12-10T00:01:15.727Z,8.90
2018-12-10T00:02:16.698Z,8.90
2018-12-10T00:03:23.783Z,8.90
2018-12-10T00:04:24.735Z,8.90
2018-12-10T00:05:25.696Z,8.90
2018-12-10T00:06:26.762Z,8.80
2018-12-10T00:07:27.724Z,8.80
2018-12-10T00:08:28.696Z,8.80
2018-12-10T00:09:29.760Z,8.80
2018-12-10T00:10:30.711Z,8.80
2018-12-10T00:11:31.972Z,8.80
2018-12-10T00:12:33.039Z,8.80
2018-12-10T00:13:34.005Z,8.80
2018-12-10T00:14:35.052Z,8.80
2018-12-10T00:15:36.108Z,8.80
2018-12-10T00:16:37.283Z,8.80
2018-12-10T00:17:38.235Z,8.70
2018-12-10T00:18:39.294Z,8.70
2018-12-10T00:19:40.255Z,8.70
2018-12-10T00:20:41.211Z,8.70
2018-12-10T00:21:42.168Z,8.70
2018-12-10T00:22:43.135Z,8.60
2018-12-10T00:23:44.142Z,8.60
2018-12-10T00:24:45.095Z,8.60
2018-12-10T00:25:46.085Z,8.70
2018-12-10T00:26:47.103Z,8.70
2018-12-10T00:27:48.065Z,8.70
2018-12-10T00:28:49.123Z,8.70
2018-12-10T00:29:50.079Z,8.70
2018-12-10T00:30:51.074Z,8.60
2018-12-10T00:31:52.039Z,8.70
2018-12-10T00:32:53.112Z,8.70
2018-12-10T00:33:54.075Z,8.60
2018-12-10T00:34:55.020Z,8.70
2018-12-10T00:35:55.984Z,8.60
2018-12-10T00:36:56.937Z,8.60
2018-12-10T00:37:57.904Z,8.60
2018-12-10T00:38:58.978Z,8.60
2018-12-10T00:39:59.956Z,8.70
2018-12-10T00:41:01.146Z,8.70
2018-12-10T00:42:02.120Z,8.70
2018-12-10T00:43:03.190Z,8.60
2018-12-10T00:44:04.158Z,8.60
2018-12-10T00:45:05.331Z,8.70
2018-12-10T00:46:06.307Z,8.70
2018-12-10T00:47:07.259Z,8.60
2018-12-10T00:48:08.215Z,8.70
2018-12-10T00:49:12.139Z,8.70
2018-12-10T00:50:13.088Z,8.60
2018-12-10T00:51:14.255Z,8.60
2018-12-10T00:52:15.232Z,8.60
2018-12-10T00:53:16.195Z,8.60
2018-12-10T00:54:17.159Z,8.60
2018-12-10T00:55:18.107Z,8.60
2018-12-10T00:56:19.070Z,8.60
2018-12-10T00:57:20.027Z,8.70
2018-12-10T00:58:21.100Z,8.70
2018-12-10T00:59:22.052Z,8.60
2018-12-10T01:00:23.117Z,8.60
2018-12-10T01:01:24.071Z,8.70
2018-12-10T01:02:25.035Z,8.60
2018-12-10T01:03:25.987Z,8.60
2018-12-10T01:04:26.938Z,8.60
2018-12-10T01:05:27.894Z,8.60
2018-12-10T01:06:28.859Z,8.60
2018-12-10T01:07:29.813Z,8.60
2018-12-10T01:08:30.892Z,8.60
2018-12-10T01:09:31.955Z,8.60
2018-12-10T01:10:33.124Z,8.60
2018-12-10T01:11:34.080Z,8.60
2018-12-10T01:12:35.035Z,8.50
2018-12-10T01:13:36.101Z,8.50
2018-12-10T01:14:37.055Z,8.50
2018-12-10T01:15:38.026Z,8.50
2018-12-10T01:16:39.091Z,8.50
2018-12-10T01:17:40.047Z,8.50
2018-12-10T01:18:41.016Z,8.50
2018-12-10T01:19:41.980Z,8.40
2018-12-10T01:20:42.931Z,8.50
2018-12-10T01:21:43.891Z,8.40
2018-12-10T01:22:44.837Z,8.40
2018-12-10T01:23:45.807Z,8.40
2018-12-10T01:24:46.775Z,8.40
2018-12-10T01:25:47.737Z,8.40
2018-12-10T01:26:48.693Z,8.40
2018-12-10T01:27:49.799Z,8.40
2018-12-10T01:28:50.775Z,8.30
2018-12-10T01:29:51.736Z,8.30
2018-12-10T01:30:52.799Z,8.40
2018-12-10T01:31:53.763Z,8.40
2018-12-10T01:32:54.726Z,8.40
2018-12-10T01:33:55.685Z,8.30
2018-12-10T01:34:56.747Z,8.40
2018-12-10T01:35:57.711Z,8.40
2018-12-10T01:36:58.709Z,8.50
2018-12-10T01:37:59.659Z,8.40
2018-12-10T01:39:00.628Z,8.40
2018-12-10T01:40:01.698Z,8.40
2018-12-10T01:41:02.767Z,8.40
2018-12-10T01:42:03.823Z,8.40
2018-12-10T01:43:04.789Z,8.40
2018-12-10T01:44:05.990Z,8.50
2018-12-10T01:45:07.166Z,8.40
2018-12-10T01:46:08.142Z,8.40
2018-12-10T01:47:09.103Z,8.40
2018-12-10T01:48:10.077Z,8.40
2018-12-10T01:49:11.051Z,8.30
2018-12-10T01:50:11.996Z,8.40
2018-12-10T01:51:13.051Z,8.30
2018-12-10T01:52:14.008Z,8.30
2018-12-10T01:53:14.956Z,8.30
2018-12-10T01:54:15.916Z,8.30
2018-12-10T01:55:16.983Z,8.30
2018-12-10T01:56:18.075Z,8.30
2018-12-10T01:57:19.111Z,8.30
2018-12-10T01:58:20.063Z,8.40
2018-12-10T01:59:21.028Z,8.40
2018-12-10T02:00:22.105Z,8.40
2018-12-10T02:01:23.075Z,8.40
2018-12-10T02:02:24.043Z,8.40
2018-12-10T02:03:25.002Z,8.40
2018-12-10T02:04:25.969Z,8.40
2018-12-10T02:05:26.929Z,8.40
2018-12-10T02:06:27.890Z,8.40
2018-12-10T02:07:28.893Z,8.40
2018-12-10T02:08:29.852Z,8.40
2018-12-10T02:09:30.911Z,8.40
2018-12-10T02:10:32.103Z,8.30
2018-12-10T02:11:33.177Z,8.30
2018-12-10T02:12:34.239Z,8.30
2018-12-10T02:13:35.203Z,8.30
2018-12-10T02:14:36.266Z,8.30
2018-12-10T02:15:37.307Z,8.30
2018-12-10T02:16:38.383Z,8.30
2018-12-10T02:17:39.451Z,8.30
2018-12-10T02:18:40.407Z,8.30
2018-12-10T02:19:41.476Z,8.30
2018-12-10T02:20:42.628Z,8.20
2018-12-10T02:21:43.595Z,8.20
2018-12-10T02:22:44.552Z,8.20
2018-12-10T02:23:45.791Z,8.30
2018-12-10T02:24:46.955Z,8.30
2018-12-10T02:25:48.124Z,8.30
2018-12-10T02:26:49.289Z,8.30
2018-12-10T02:27:50.251Z,8.30
2018-12-10T02:28:57.411Z,8.30
2018-12-10T02:29:58.375Z,8.30
2018-12-10T02:30:59.369Z,8.30
2018-12-10T02:32:00.585Z,8.30
2018-12-10T02:33:01.881Z,8.30
2018-12-10T02:34:02.948Z,8.30
2018-12-10T02:35:04.115Z,8.30
2018-12-10T02:36:05.076Z,8.30
2018-12-10T02:37:06.035Z,8.30
2018-12-10T02:38:07.099Z,8.30
2018-12-10T02:39:08.071Z,8.30
2018-12-10T02:40:09.147Z,8.30
2018-12-10T02:41:10.133Z,8.30
2018-12-10T02:42:11.211Z,8.30
2018-12-10T02:43:12.270Z,8.30
2018-12-10T02:44:13.379Z,8.30
2018-12-10T02:45:14.531Z,8.40
2018-12-10T02:46:15.594Z,8.30
2018-12-10T02:47:16.767Z,8.30
2018-12-10T02:48:18.717Z,8.30
2018-12-10T02:49:19.835Z,8.30
2018-12-10T02:50:20.802Z,8.20
2018-12-10T02:51:21.864Z,8.20
2018-12-10T02:52:23.051Z,8.20
2018-12-10T02:53:24.109Z,8.20
2018-12-10T02:54:25.085Z,8.20
2018-12-10T02:55:26.047Z,8.20
2018-12-10T02:56:27.014Z,8.20
2018-12-10T02:57:28.078Z,8.10
2018-12-10T02:58:29.270Z,8.10
2018-12-10T02:59:30.335Z,8.10
2018-12-10T03:00:31.400Z,8.10
2018-12-10T03:01:32.407Z,8.10
2018-12-10T03:02:33.371Z,8.10
2018-12-10T03:03:34.347Z,8.10
2018-12-10T03:04:35.318Z,8.10
2018-12-10T03:05:36.489Z,8.10
2018-12-10T03:06:37.560Z,8.10
2018-12-10T03:07:38.523Z,8.10
2018-12-10T03:08:39.480Z,8.10
2018-12-10T03:09:40.641Z,8.10
2018-12-10T03:10:41.706Z,8.10
2018-12-10T03:11:42.771Z,8.10
2018-12-10T03:12:43.826Z,8.10
2018-12-10T03:13:44.791Z,8.10
2018-12-10T03:14:45.881Z,8.10
2018-12-10T03:15:47.075Z,8.10
2018-12-10T03:16:48.158Z,8.10
2018-12-10T03:17:49.229Z,8.10
2018-12-10T03:18:50.195Z,8.10
2018-12-10T03:19:51.164Z,8.10
2018-12-10T03:20:52.925Z,8.10
2018-12-10T03:21:54.183Z,8.10
2018-12-10T03:22:55.256Z,8.10
2018-12-10T03:23:56.237Z,8.10
2018-12-10T03:24:57.347Z,8.00
2018-12-10T03:25:58.308Z,8.00
2018-12-10T03:26:59.437Z,8.00
2018-12-10T03:28:00.601Z,8.00
2018-12-10T03:29:01.563Z,8.00
2018-12-10T03:30:03.345Z,8.00
2018-12-10T03:31:04.417Z,7.90
2018-12-10T03:32:05.379Z,8.00
2018-12-10T03:33:06.562Z,8.00
2018-12-10T03:34:07.731Z,8.00
2018-12-10T03:35:08.799Z,8.00
2018-12-10T03:36:09.864Z,7.90
2018-12-10T03:37:10.927Z,7.90
2018-12-10T03:38:11.896Z,7.90
2018-12-10T03:39:13.265Z,8.00
2018-12-10T03:40:14.411Z,8.00
2018-12-10T03:41:15.433Z,8.00
2018-12-10T03:42:16.425Z,8.00
2018-12-10T03:43:17.607Z,8.00
2018-12-10T03:44:18.742Z,8.00
2018-12-10T03:45:19.814Z,8.00
2018-12-10T03:46:20.771Z,8.00
2018-12-10T03:47:21.734Z,8.00
2018-12-10T03:48:22.788Z,8.00
2018-12-10T03:49:23.756Z,8.00
2018-12-10T03:50:24.821Z,8.10
2018-12-10T03:51:25.875Z,8.10
2018-12-10T03:52:26.829Z,8.10
2018-12-10T03:53:27.912Z,8.10
2018-12-10T03:54:28.875Z,8.10
2018-12-10T03:55:29.832Z,8.10
2018-12-10T03:56:30.900Z,8.10
2018-12-10T03:57:31.955Z,8.20
2018-12-10T03:58:32.915Z,8.10
2018-12-10T03:59:33.986Z,8.10
2018-12-10T04:00:34.947Z,8.10
2018-12-10T04:01:36.010Z,8.10
2018-12-10T04:02:36.972Z,8.10
2018-12-10T04:03:37.920Z,8.10
2018-12-10T04:04:38.884Z,8.10
2018-12-10T04:05:39.945Z,8.10
2018-12-10T04:06:40.904Z,8.10
2018-12-10T04:07:41.856Z,8.10
2018-12-10T04:08:42.819Z,8.10
2018-12-10T04:09:43.784Z,8.20
2018-12-10T04:10:44.839Z,8.10
2018-12-10T04:11:45.791Z,8.10
2018-12-10T04:12:46.745Z,8.10
2018-12-10T04:13:47.823Z,8.10
2018-12-10T04:14:48.793Z,8.10
2018-12-10T04:15:49.868Z,8.10
2018-12-10T04:16:51.143Z,8.10
2018-12-10T04:17:52.092Z,8.10
2018-12-10T04:18:53.276Z,8.10
2018-12-10T04:19:54.239Z,8.10
2018-12-10T04:20:55.197Z,8.10
2018-12-10T04:21:56.161Z,8.00
2018-12-10T04:22:57.336Z,8.00
2018-12-10T04:23:58.408Z,8.00
2018-12-10T04:24:59.384Z,8.00
2018-12-10T04:26:00.346Z,8.00
2018-12-10T04:27:01.431Z,8.00
2018-12-10T04:28:02.495Z,8.00
2018-12-10T04:29:03.443Z,8.00
2018-12-10T04:30:04.529Z,7.90
2018-12-10T04:31:05.600Z,8.00
2018-12-10T04:32:06.671Z,8.00
2018-12-10T04:33:07.620Z,7.90
2018-12-10T04:34:08.575Z,7.90
2018-12-10T04:35:09.536Z,7.90
2018-12-10T04:36:10.605Z,7.90
2018-12-10T04:37:11.583Z,7.90
2018-12-10T04:38:12.566Z,7.90
2018-12-10T04:39:13.536Z,7.80
2018-12-10T04:40:14.508Z,7.80
2018-12-10T04:41:15.460Z,7.90
2018-12-10T04:42:16.427Z,7.90
2018-12-10T04:43:17.389Z,7.80
2018-12-10T04:44:18.375Z,7.80
2018-12-10T04:45:19.554Z,7.90
2018-12-10T04:46:20.543Z,7.90
2018-12-10T04:47:21.619Z,7.90
2018-12-10T04:48:22.582Z,7.90
2018-12-10T04:49:23.544Z,7.90
2018-12-10T04:50:24.619Z,7.90
2018-12-10T04:51:25.564Z,7.90
2018-12-10T04:52:26.522Z,7.80
2018-12-10T04:53:27.696Z,7.80
2018-12-10T04:54:28.781Z,7.80
2018-12-10T04:55:29.749Z,7.80
2018-12-10T04:56:30.697Z,7.80
2018-12-10T04:57:31.871Z,7.80
2018-12-10T04:58:32.854Z,7.80
2018-12-10T04:59:33.811Z,7.80
2018-12-10T05:00:34.798Z,7.80
2018-12-10T05:01:35.755Z,7.80
2018-12-10T05:02:36.826Z,7.90
2018-12-10T05:03:37.784Z,7.80
2018-12-10T05:04:38.731Z,7.80
2018-12-10T05:05:39.719Z,7.80
2018-12-10T05:06:40.667Z,7.90
2018-12-10T05:07:41.744Z,7.90
2018-12-10T05:08:43.030Z,7.90
2018-12-10T05:09:43.990Z,7.80
2018-12-10T05:10:45.335Z,7.90
2018-12-10T05:11:46.296Z,7.90
2018-12-10T05:12:47.271Z,7.90
2018-12-10T05:13:48.220Z,7.90
2018-12-10T05:14:49.283Z,7.90
2018-12-10T05:15:50.263Z,7.90
2018-12-10T05:16:51.263Z,7.90
2018-12-10T05:17:52.233Z,7.90
2018-12-10T05:18:53.640Z,7.90
2018-12-10T05:19:54.607Z,7.90
2018-12-10T05:20:55.575Z,7.90
2018-12-10T05:21:56.529Z,7.90
2018-12-10T05:22:57.490Z,8.00
2018-12-10T05:23:58.551Z,8.00
2018-12-10T05:24:59.513Z,8.00
2018-12-10T05:26:00.606Z,8.00
2018-12-10T05:27:01.564Z,7.90
2018-12-10T05:28:02.623Z,7.80
2018-12-10T05:29:03.591Z,7.80
2018-12-10T05:30:04.872Z,7.70
2018-12-10T05:31:06.051Z,7.60
2018-12-10T05:32:07.011Z,7.60
2018-12-10T05:33:07.972Z,7.60
2018-12-10T05:34:08.923Z,7.60
2018-12-10T05:35:09.882Z,7.60
2018-12-10T05:36:18.040Z,7.50
2018-12-10T05:37:19.007Z,7.50
2018-12-10T05:38:19.992Z,7.50
2018-12-10T05:39:20.957Z,7.40
2018-12-10T05:40:21.919Z,7.30
2018-12-10T05:41:22.888Z,7.30
2018-12-10T05:42:23.857Z,7.30
2018-12-10T05:43:24.964Z,7.30
2018-12-10T05:44:26.015Z,7.30
2018-12-10T05:45:26.972Z,7.20
2018-12-10T05:46:27.927Z,7.10
2018-12-10T05:47:28.881Z,7.00
2018-12-10T05:48:29.956Z,6.90
2018-12-10T05:49:30.914Z,6.90
2018-12-10T05:50:31.975Z,6.90
2018-12-10T05:51:33.060Z,6.80
2018-12-10T05:52:34.011Z,6.70
2018-12-10T05:53:34.963Z,6.60
2018-12-10T05:54:35.927Z,6.60
2018-12-10T05:55:36.893Z,6.60
2018-12-10T05:56:37.976Z,6.60
2018-12-10T05:57:38.931Z,6.60
2018-12-10T05:58:39.894Z,6.60
2018-12-10T05:59:40.845Z,6.50
2018-12-10T06:00:41.923Z,6.50
2018-12-10T06:01:43.029Z,6.40
2018-12-10T06:02:44.091Z,6.40
2018-12-10T06:03:45.046Z,6.40
2018-12-10T06:04:45.991Z,6.40
2018-12-10T06:05:47.068Z,6.40
2018-12-10T06:06:48.035Z,6.40
2018-12-10T06:07:49.092Z,6.40
2018-12-10T06:08:50.052Z,6.40
2018-12-10T06:09:51.286Z,6.40
2018-12-10T06:10:52.520Z,6.50
2018-12-10T06:11:53.489Z,6.50
2018-12-10T06:12:54.452Z,6.40
2018-12-10T06:13:55.419Z,6.40
2018-12-10T06:14:56.425Z,6.40
2018-12-10T06:15:57.383Z,6.40
2018-12-10T06:16:58.361Z,6.40
2018-12-10T06:17:59.444Z,6.40
2018-12-10T06:19:00.476Z,6.40
2018-12-10T06:20:01.656Z,6.40
2018-12-10T06:21:02.628Z,6.50
2018-12-10T06:22:03.616Z,6.50
2018-12-10T06:23:11.523Z,6.50
2018-12-10T06:24:12.483Z,6.50
2018-12-10T06:25:13.577Z,6.50
2018-12-10T06:26:14.652Z,6.50
2018-12-10T06:27:15.620Z,6.50
2018-12-10T06:28:16.589Z,6.60
2018-12-10T06:29:17.548Z,6.60
2018-12-10T06:30:18.695Z,6.60
2018-12-10T06:31:19.654Z,6.60
2018-12-10T06:32:20.668Z,6.60
2018-12-10T06:33:21.656Z,6.60
2018-12-10T06:34:22.651Z,6.50
2018-12-10T06:35:23.619Z,6.50
2018-12-10T06:36:24.599Z,6.50
2018-12-10T06:37:25.670Z,6.50
2018-12-10T06:38:26.927Z,6.50
2018-12-10T06:39:27.899Z,6.50
2018-12-10T06:40:28.874Z,6.50
2018-12-10T06:41:29.907Z,6.50
2018-12-10T06:42:30.981Z,6.50
2018-12-10T06:43:32.063Z,6.50
2018-12-10T06:44:33.048Z,6.50
2018-12-10T06:45:34.016Z,6.50
2018-12-10T06:46:34.975Z,6.50
2018-12-10T06:47:35.951Z,6.50
2018-12-10T06:48:36.907Z,6.50
2018-12-10T06:49:37.877Z,6.50
2018-12-10T06:50:38.947Z,6.60
2018-12-10T06:51:39.958Z,6.60
2018-12-10T06:52:40.907Z,6.50
2018-12-10T06:53:41.868Z,6.50
2018-12-10T06:54:42.832Z,6.50
2018-12-10T06:55:43.791Z,6.50
2018-12-10T06:56:44.751Z,6.60
2018-12-10T06:57:45.717Z,6.60
2018-12-10T06:58:46.780Z,6.60
2018-12-10T06:59:47.840Z,6.60
2018-12-10T07:00:48.914Z,6.60
2018-12-10T07:01:49.976Z,6.60
2018-12-10T07:02:51.048Z,6.60
2018-12-10T07:03:53.059Z,6.70
2018-12-10T07:04:54.120Z,6.70
2018-12-10T07:05:55.103Z,6.70
2018-12-10T07:06:56.070Z,6.70
2018-12-10T07:07:57.142Z,6.80
2018-12-10T07:08:58.092Z,6.80
2018-12-10T07:09:59.041Z,6.80
2018-12-10T07:10:59.999Z,6.80
2018-12-10T07:12:00.979Z,6.80
2018-12-10T07:13:02.027Z,6.80
2018-12-10T07:14:03.323Z,6.90
2018-12-10T07:15:04.836Z,6.90
2018-12-10T07:16:05.906Z,6.90
2018-12-10T07:17:06.990Z,6.90
2018-12-10T07:18:07.940Z,6.90
2018-12-10T07:19:08.907Z,6.90
2018-12-10T07:20:09.967Z,7.00
2018-12-10T07:21:11.031Z,6.90
2018-12-10T07:22:11.989Z,6.90
2018-12-10T07:23:13.067Z,6.90
2018-12-10T07:24:14.127Z,6.90
2018-12-10T07:25:15.191Z,7.00
2018-12-10T07:26:16.145Z,6.90
2018-12-10T07:27:17.094Z,7.00
2018-12-10T07:28:18.210Z,7.10
2018-12-10T07:29:19.180Z,7.10
2018-12-10T07:30:20.152Z,7.10
2018-12-10T07:31:21.117Z,7.10
2018-12-10T07:32:22.188Z,7.10
2018-12-10T07:33:23.148Z,7.10
2018-12-10T07:34:24.113Z,7.20
2018-12-10T07:35:25.189Z,7.20
2018-12-10T07:36:26.147Z,7.20
2018-12-10T07:37:27.099Z,7.10
2018-12-10T07:38:28.157Z,7.10
2018-12-10T07:39:29.156Z,7.10
2018-12-10T07:40:30.221Z,7.10
2018-12-10T07:41:31.371Z,7.10
2018-12-10T07:42:32.323Z,7.20
2018-12-10T07:43:33.329Z,7.10
2018-12-10T07:44:34.331Z,7.10
2018-12-10T07:45:35.318Z,7.10
2018-12-10T07:46:36.276Z,7.10
2018-12-10T07:47:37.263Z,7.10
2018-12-10T07:48:38.237Z,7.20
2018-12-10T07:49:39.195Z,7.10
2018-12-10T07:50:40.143Z,7.10
2018-12-10T07:51:41.107Z,7.10
2018-12-10T07:52:42.071Z,7.00
2018-12-10T07:53:43.027Z,7.00
2018-12-10T07:54:44.084Z,7.00
2018-12-10T07:55:45.160Z,7.10
2018-12-10T07:56:46.127Z,7.10
2018-12-10T07:57:47.087Z,7.10
2018-12-10T07:58:48.179Z,7.20
2018-12-10T07:59:49.135Z,7.20
2018-12-10T08:00:50.097Z,7.20
2018-12-10T08:01:51.061Z,7.20
2018-12-10T08:02:52.011Z,7.20
2018-12-10T08:03:53.292Z,7.20
2018-12-10T08:04:54.301Z,7.20
2018-12-10T08:05:55.408Z,7.30
2018-12-10T08:06:56.489Z,7.30
2018-12-10T08:07:57.556Z,7.30
2018-12-10T08:08:58.567Z,7.30
2018-12-10T08:09:59.781Z,7.40
2018-12-10T08:11:00.745Z,7.40
2018-12-10T08:12:01.963Z,7.40
2018-12-10T08:13:03.027Z,7.50
2018-12-10T08:14:04.011Z,7.50
2018-12-10T08:15:05.285Z,7.40
2018-12-10T08:16:06.327Z,7.40
2018-12-10T08:17:07.315Z,7.50
2018-12-10T08:18:08.280Z,7.50
2018-12-10T08:19:09.235Z,7.50
2018-12-10T08:20:10.187Z,7.50
2018-12-10T08:21:11.252Z,7.50
2018-12-10T08:22:12.251Z,7.50
2018-12-10T08:23:13.304Z,7.50
2018-12-10T08:24:14.267Z,7.50
2018-12-10T08:25:15.227Z,7.50
2018-12-10T08:26:16.432Z,7.50
2018-12-10T08:27:17.495Z,7.50
2018-12-10T08:28:18.467Z,7.60
2018-12-10T08:29:19.419Z,7.60
2018-12-10T08:30:20.375Z,7.60
2018-12-10T08:31:21.340Z,7.60
2018-12-10T08:32:22.414Z,7.60
2018-12-10T08:33:23.405Z,7.60
2018-12-10T08:34:24.415Z,7.60
2018-12-10T08:35:25.467Z,7.50
2018-12-10T08:36:26.412Z,7.50
2018-12-10T08:37:27.484Z,7.60
2018-12-10T08:38:28.480Z,7.60
2018-12-10T08:39:29.582Z,7.60
2018-12-10T08:40:30.603Z,7.50
2018-12-10T08:41:31.692Z,7.50
2018-12-10T08:42:32.703Z,7.50
2018-12-10T08:43:33.775Z,7.50
2018-12-10T08:44:34.719Z,7.50
2018-12-10T08:45:35.924Z,7.60
2018-12-10T08:46:36.888Z,7.60
2018-12-10T08:47:37.849Z,7.60
2018-12-10T08:48:38.814Z,7.60
2018-12-10T08:49:39.791Z,7.70
2018-12-10T08:50:40.961Z,7.70
2018-12-10T08:51:42.008Z,7.70
2018-12-10T08:52:43.081Z,7.80
2018-12-10T08:53:44.047Z,7.80
2018-12-10T08:54:45.113Z,7.80
2018-12-10T08:55:46.076Z,7.70
2018-12-10T08:56:47.077Z,7.70
2018-12-10T08:57:48.200Z,7.70
2018-12-10T08:58:49.171Z,7.60
2018-12-10T08:59:50.131Z,7.70
2018-12-10T09:00:51.087Z,7.80
2018-12-10T09:01:52.047Z,7.70
2018-12-10T09:02:53.147Z,7.80
2018-12-10T09:03:54.337Z,7.80
2018-12-10T09:04:55.307Z,7.80
2018-12-10T09:05:56.386Z,7.80
2018-12-10T09:06:57.652Z,7.80
2018-12-10T09:07:58.622Z,7.80
2018-12-10T09:08:59.597Z,7.80
2018-12-10T09:10:00.571Z,7.80
2018-12-10T09:11:01.532Z,7.80
2018-12-10T09:12:02.692Z,7.80
2018-12-10T09:13:03.760Z,7.80
2018-12-10T09:14:04.719Z,7.70
2018-12-10T09:15:05.902Z,7.70
2018-12-10T09:16:06.902Z,7.70
2018-12-10T09:17:07.864Z,7.70
2018-12-10T09:18:08.832Z,7.70
2018-12-10T09:19:09.813Z,7.70
2018-12-10T09:20:10.807Z,7.60
2018-12-10T09:21:11.796Z,7.70
2018-12-10T09:22:13.087Z,7.70
2018-12-10T09:23:14.151Z,7.70
2018-12-10T09:24:15.135Z,7.70
2018-12-10T09:25:16.345Z,7.70
2018-12-10T09:26:17.299Z,7.70
2018-12-10T09:27:18.261Z,7.70
2018-12-10T09:28:19.661Z,7.80
2018-12-10T09:29:20.859Z,7.80
2018-12-10T09:30:21.823Z,7.80
2018-12-10T09:31:22.992Z,7.80
2018-12-10T09:32:23.975Z,7.80
2018-12-10T09:33:25.044Z,7.80
2018-12-10T09:34:26.017Z,7.90
2018-12-10T09:35:27.023Z,7.90
2018-12-10T09:36:28.139Z,7.90
2018-12-10T09:37:29.227Z,7.90
2018-12-10T09:38:30.301Z,7.90
2018-12-10T09:39:31.452Z,7.90
2018-12-10T09:40:32.415Z,7.90
2018-12-10T09:41:33.477Z,7.90
2018-12-10T09:42:34.435Z,7.90
2018-12-10T09:43:35.419Z,7.90
2018-12-10T09:44:36.404Z,7.90
2018-12-10T09:45:37.467Z,7.90
2018-12-10T09:46:38.643Z,7.90
2018-12-10T09:47:39.798Z,7.90
2018-12-10T09:48:40.776Z,7.90
2018-12-10T09:49:48.564Z,7.90
2018-12-10T09:50:49.673Z,7.90
2018-12-10T09:51:50.644Z,7.90
2018-12-10T09:52:51.605Z,7.90
2018-12-10T09:53:52.579Z,8.00
2018-12-10T09:54:53.568Z,8.00
2018-12-10T09:55:54.535Z,8.00
2018-12-10T09:56:55.599Z,8.00
2018-12-10T09:57:56.660Z,8.00
2018-12-10T09:58:57.745Z,8.00
2018-12-10T09:59:58.824Z,8.10
2018-12-10T10:00:59.791Z,8.10
2018-12-10T10:02:00.747Z,8.10
2018-12-10T10:03:01.819Z,8.10
2018-12-10T10:04:03.054Z,8.10
2018-12-10T10:05:04.257Z,8.10
2018-12-10T10:06:05.208Z,8.10
2018-12-10T10:07:06.282Z,8.20
2018-12-10T10:08:07.257Z,8.20
2018-12-10T10:09:08.247Z,8.20
2018-12-10T10:10:09.420Z,8.20
2018-12-10T10:11:10.492Z,8.30
2018-12-10T10:12:11.461Z,8.30
2018-12-10T10:13:12.427Z,8.30
2018-12-10T10:14:13.384Z,8.30
2018-12-10T10:15:14.458Z,8.20
2018-12-10T10:16:15.424Z,8.20
2018-12-10T10:17:16.394Z,8.20
2018-12-10T10:18:17.362Z,8.20
2018-12-10T10:19:18.452Z,8.20
2018-12-10T10:20:19.426Z,8.30
2018-12-10T10:21:20.616Z,8.30
2018-12-10T10:22:21.758Z,8.30
2018-12-10T10:23:22.883Z,8.20
2018-12-10T10:24:23.961Z,8.20
2018-12-10T10:25:24.919Z,8.20
2018-12-10T10:26:25.987Z,8.20
2018-12-10T10:27:26.955Z,8.20
2018-12-10T10:28:27.926Z,8.20
2018-12-10T10:29:29.007Z,8.30
2018-12-10T10:30:29.971Z,8.20
2018-12-10T10:31:31.600Z,8.20
2018-12-10T10:32:32.835Z,8.10
2018-12-10T10:33:33.903Z,8.10
2018-12-10T10:34:34.864Z,8.20
2018-12-10T10:35:35.921Z,8.10
2018-12-10T10:36:36.918Z,8.20
2018-12-10T10:37:38.036Z,8.20
2018-12-10T10:38:38.999Z,8.20
2018-12-10T10:39:39.971Z,8.30
2018-12-10T10:40:41.027Z,8.30
2018-12-10T10:41:42.189Z,8.30
2018-12-10T10:42:43.187Z,8.30
2018-12-10T10:43:44.359Z,8.20
2018-12-10T10:44:45.321Z,8.20
2018-12-10T10:45:46.277Z,8.20
2018-12-10T10:46:47.457Z,8.20
2018-12-10T10:47:48.447Z,8.20
2018-12-10T10:48:49.407Z,8.10
2018-12-10T10:49:50.438Z,8.20
2018-12-10T10:50:51.409Z,8.20
2018-12-10T10:51:52.516Z,8.10
2018-12-10T10:52:53.599Z,8.10
2018-12-10T10:53:54.576Z,8.10
2018-12-10T10:54:55.619Z,8.20
2018-12-10T10:55:56.725Z,8.10
2018-12-10T10:56:57.816Z,8.10
2018-12-10T10:57:58.816Z,8.10
2018-12-10T10:58:59.777Z,8.00
2018-12-10T11:00:01.027Z,8.00
2018-12-10T11:01:08.039Z,8.00
2018-12-10T11:02:19.984Z,8.00
2018-12-10T11:03:27.248Z,8.00
2018-12-10T11:04:28.233Z,8.00
2018-12-10T11:05:29.208Z,8.00
2018-12-10T11:06:30.175Z,7.90
2018-12-10T11:07:31.196Z,7.90
2018-12-10T11:08:32.296Z,7.90
2018-12-10T11:09:33.436Z,7.90
2018-12-10T11:10:35.525Z,8.00
2018-12-10T11:11:36.719Z,8.00
2018-12-10T11:12:37.848Z,8.00
2018-12-10T11:13:38.946Z,8.00
2018-12-10T11:14:40.058Z,8.00
2018-12-10T11:15:41.192Z,8.00
2018-12-10T11:16:42.440Z,8.00
2018-12-10T11:17:43.781Z,8.10
2018-12-10T11:18:44.857Z,8.10
2018-12-10T11:19:45.833Z,8.00
2018-12-10T11:20:46.911Z,8.00
2018-12-10T11:21:48.084Z,8.00
2018-12-10T11:22:49.800Z,8.00
2018-12-10T11:23:50.969Z,8.00
2018-12-10T11:24:59.011Z,8.00
2018-12-10T11:26:00.191Z,8.00
2018-12-10T11:27:01.265Z,8.10
2018-12-10T11:28:02.468Z,8.10
2018-12-10T11:29:03.444Z,8.10
2018-12-10T11:30:04.630Z,8.10
2018-12-10T11:31:05.647Z,8.20
2018-12-10T11:32:06.935Z,8.20
2018-12-10T11:33:08.039Z,8.20
2018-12-10T11:34:09.135Z,8.30
2018-12-10T11:35:10.335Z,8.40
2018-12-10T11:36:11.424Z,8.40
2018-12-10T11:37:12.409Z,8.50
2018-12-10T11:38:13.617Z,8.60
2018-12-10T11:39:14.683Z,8.60
2018-12-10T11:40:22.653Z,8.60
2018-12-10T11:41:24.616Z,8.50
2018-12-10T11:42:25.699Z,8.50
2018-12-10T11:43:26.722Z,8.40
2018-12-10T11:44:27.692Z,8.30
2018-12-10T11:45:28.821Z,8.30
2018-12-10T11:46:29.787Z,8.30
2018-12-10T11:47:30.759Z,8.30
2018-12-10T11:48:31.750Z,8.20
2018-12-10T11:49:32.720Z,8.10
2018-12-10T11:50:40.679Z,8.20
2018-12-10T11:51:41.700Z,8.20
2018-12-10T11:52:42.805Z,8.20
2018-12-10T11:53:44.251Z,8.20
2018-12-10T11:54:45.338Z,8.30
2018-12-10T11:55:46.347Z,8.20
2018-12-10T11:56:47.423Z,8.20
2018-12-10T11:57:48.440Z,8.20
2018-12-10T11:58:49.411Z,8.20
2018-12-10T11:59:50.511Z,8.30
2018-12-10T12:00:51.504Z,8.30
2018-12-10T12:01:53.131Z,8.20
2018-12-10T12:02:55.307Z,8.30
2018-12-10T12:03:57.448Z,8.40
2018-12-10T12:04:59.092Z,8.40
2018-12-10T12:06:01.147Z,8.50
2018-12-10T12:07:02.355Z,8.50
2018-12-10T12:08:03.452Z,8.50
2018-12-10T12:09:11.222Z,8.60
2018-12-10T12:10:12.213Z,8.60
2018-12-10T12:11:13.277Z,8.70
2018-12-10T12:12:14.258Z,8.70
2018-12-10T12:13:15.359Z,8.70
2018-12-10T12:14:16.438Z,8.70
2018-12-10T12:15:17.631Z,8.70
2018-12-10T12:16:18.615Z,8.60
2018-12-10T12:17:19.615Z,8.60
2018-12-10T12:18:20.692Z,8.60
2018-12-10T12:19:21.695Z,8.50
2018-12-10T12:20:22.705Z,8.50
2018-12-10T12:21:23.827Z,8.60
2018-12-10T12:22:24.931Z,8.60
2018-12-10T12:23:26.465Z,8.60
2018-12-10T12:24:27.494Z,8.60
2018-12-10T12:25:29.170Z,8.50
2018-12-10T12:26:30.297Z,8.50
2018-12-10T12:27:31.385Z,8.40
2018-12-10T12:28:32.332Z,8.40
2018-12-10T12:29:33.292Z,8.40
2018-12-10T12:30:34.279Z,8.40
2018-12-10T12:31:35.302Z,8.50
2018-12-10T12:32:36.319Z,8.40
2018-12-10T12:33:37.387Z,8.50
2018-12-10T12:34:38.419Z,8.50
2018-12-10T12:35:39.401Z,8.50
2018-12-10T12:36:40.360Z,8.50
2018-12-10T12:37:41.388Z,8.50
2018-12-10T12:38:42.364Z,8.50
2018-12-10T12:39:43.336Z,8.50
2018-12-10T12:40:44.564Z,8.60
2018-12-10T12:41:45.557Z,8.60
2018-12-10T12:42:46.544Z,8.70
2018-12-10T12:43:47.646Z,8.80
2018-12-10T12:44:48.720Z,8.80
2018-12-10T12:45:49.804Z,8.80
2018-12-10T12:46:50.767Z,8.80
2018-12-10T12:47:51.747Z,8.80
2018-12-10T12:48:52.810Z,8.80
2018-12-10T12:49:53.911Z,8.80
2018-12-10T12:50:55.011Z,8.80
2018-12-10T12:51:56.063Z,8.90
2018-12-10T12:52:57.021Z,8.80
2018-12-10T12:53:58.003Z,8.80
2018-12-10T12:54:58.969Z,8.80
2018-12-10T12:56:00.055Z,8.80
2018-12-10T12:57:01.031Z,8.80
2018-12-10T12:58:02.232Z,8.90
2018-12-10T12:59:04.493Z,8.90
2018-12-10T13:00:05.877Z,8.90
2018-12-10T13:01:06.982Z,8.80
2018-12-10T13:02:08.051Z,8.80
2018-12-10T13:03:09.161Z,8.70
2018-12-10T13:04:10.131Z,8.60
2018-12-10T13:05:11.155Z,8.60
2018-12-10T13:06:19.358Z,8.50
2018-12-10T13:07:20.391Z,8.50
2018-12-10T13:08:21.360Z,8.50
2018-12-10T13:09:22.332Z,8.50
2018-12-10T13:10:23.423Z,8.50
2018-12-10T13:11:24.487Z,8.50
2018-12-10T13:12:25.461Z,8.50
2018-12-10T13:13:26.548Z,8.40
2018-12-10T13:14:27.501Z,8.30
2018-12-10T13:15:28.483Z,8.30
2018-12-10T13:16:29.712Z,8.30
2018-12-10T13:17:30.802Z,8.30
2018-12-10T13:18:31.900Z,8.30
2018-12-10T13:19:39.879Z,8.30
2018-12-10T13:20:40.908Z,8.30
2018-12-10T13:21:41.971Z,8.40
2018-12-10T13:22:47.220Z,8.50
2018-12-10T13:23:45.915Z,8.50
2018-12-10T13:24:46.879Z,8.50
2018-12-10T13:25:47.966Z,8.60
2018-12-10T13:26:49.239Z,8.60
2018-12-10T13:27:50.303Z,8.70
2018-12-10T13:28:51.542Z,8.70
2018-12-10T13:29:52.545Z,8.70
2018-12-10T13:30:53.555Z,8.60
2018-12-10T13:31:54.554Z,8.70
2018-12-10T13:32:55.516Z,8.70
2018-12-10T13:33:56.476Z,8.60